Main page
METAR-TAF:

METAR-TAF

Airports :

São José do Rio Preto Airport

São José do Rio Preto, São Paulo, Brazil

latitude: 20-48-58S, longitude: 049-24-17W, elevation: 543 m

Current weather observation

The report was made 1 hour and 24 minutes ago, at 14:00 UTC
Wind 7 kt from the Northeast, varying between North and East
Temperature 26°C
Humidity 74%
Pressure 1016 hPa
Visibility 10 km or more
Scattered clouds at a height of 1000 ft
Scattered clouds at a height of 2000 ft
Broken clouds at a height of 7100 ft

METAR: SBSR 181400Z 05007KT 350V090 9999 SCT010 SCT020 BKN071 26/21 Q1016

Time: 13:24 (15:24 UTC)


TAF: missing

Weather observations and forecasts of more than 4000 airports (METAR and TAF reports).

The available stations are represented by yellow and red dots on the map.

Hover mouse over dot to see the name of the station.

Then click to see weather observations and forecasts.

To change the map : click on the green buttons with a black cross to zoom in, on the green button with a dash to zoom out, or on the green arrows for adjacent maps.


METAR-TAF: